createdAt,value
2018-06-05T00:01:26.563Z,3
2018-06-05T00:04:16.395Z,2.9
2018-06-05T00:07:16.341Z,3.1
2018-06-05T00:10:16.323Z,3
2018-06-05T00:13:16.270Z,3
2018-06-05T00:16:16.162Z,3.3
2018-06-05T00:19:16.342Z,2.9
2018-06-05T00:22:16.487Z,3
2018-06-05T00:25:16.239Z,3
2018-06-05T00:28:16.613Z,3.4
2018-06-05T00:31:16.119Z,2.9
2018-06-05T00:34:16.132Z,2.9
2018-06-05T00:37:16.413Z,2.9
2018-06-05T00:40:16.166Z,2.8
2018-06-05T00:43:16.316Z,2.9
2018-06-05T00:46:16.286Z,3.1
2018-06-05T00:49:16.340Z,2.9
2018-06-05T00:52:16.592Z,2.9
2018-06-05T00:55:16.145Z,3
2018-06-05T00:58:16.403Z,3
2018-06-05T01:01:16.277Z,2.8
2018-06-05T01:04:16.268Z,2.9
2018-06-05T01:07:16.316Z,2.9
2018-06-05T01:10:16.253Z,2.9
2018-06-05T01:13:16.638Z,3.2
2018-06-05T01:16:16.196Z,3
2018-06-05T01:19:16.340Z,2.8
2018-06-05T01:22:16.119Z,3
2018-06-05T01:25:16.246Z,3.2
2018-06-05T01:28:16.169Z,3.1
2018-06-05T01:31:16.477Z,3
2018-06-05T01:34:16.749Z,3.2
2018-06-05T01:37:16.400Z,2.9
2018-06-05T01:40:16.560Z,3.1
2018-06-05T01:43:16.784Z,3.1
2018-06-05T01:46:16.368Z,3.3
2018-06-05T01:49:16.382Z,3
2018-06-05T01:52:16.601Z,2.9
2018-06-05T01:55:16.314Z,2.9
2018-06-05T01:58:16.280Z,3.2
2018-06-05T02:01:16.292Z,3
2018-06-05T02:04:26.316Z,3
2018-06-05T02:07:16.432Z,3
2018-06-05T02:10:16.496Z,3.4
2018-06-05T02:13:16.512Z,3.2
2018-06-05T02:16:16.521Z,3.1
2018-06-05T02:19:16.365Z,3.2
2018-06-05T02:22:16.491Z,3.2
2018-06-05T02:25:18.384Z,3
2018-06-05T02:28:16.441Z,3
2018-06-05T02:31:16.080Z,3.4
2018-06-05T02:34:16.874Z,3.4
2018-06-05T02:37:16.203Z,3.2
2018-06-05T02:40:16.127Z,3.2
2018-06-05T02:43:16.439Z,3.1
2018-06-05T02:46:16.161Z,3.4
2018-06-05T02:49:16.488Z,3
2018-06-05T02:52:16.167Z,3.3
2018-06-05T02:55:16.328Z,3.1
2018-06-05T02:58:16.110Z,3
2018-06-05T03:01:16.128Z,3.2
2018-06-05T03:04:16.325Z,3.1
2018-06-05T03:07:16.423Z,3.2
2018-06-05T03:10:16.288Z,3.1
2018-06-05T03:13:16.082Z,3.3
2018-06-05T03:16:16.177Z,3.1
2018-06-05T03:19:16.089Z,3.3
2018-06-05T03:22:16.302Z,3.1
2018-06-05T03:25:16.059Z,3.3
2018-06-05T03:28:16.465Z,3.2
2018-06-05T03:31:16.301Z,3.2
2018-06-05T03:34:16.266Z,3.3
2018-06-05T03:37:16.300Z,3.9
2018-06-05T03:40:16.181Z,3.5
2018-06-05T03:43:16.250Z,3.2
2018-06-05T03:46:16.342Z,3.4
2018-06-05T03:49:16.726Z,3.2
2018-06-05T03:52:16.496Z,3.3
2018-06-05T03:55:16.290Z,3.2
2018-06-05T03:58:16.215Z,3.1
2018-06-05T04:01:16.206Z,3.4
2018-06-05T04:04:16.289Z,3.5
2018-06-05T04:07:16.746Z,3.5
2018-06-05T04:10:16.311Z,3.2
2018-06-05T04:13:16.755Z,3.4
2018-06-05T04:16:16.279Z,3.4
2018-06-05T04:19:16.246Z,3.2
2018-06-05T04:22:16.472Z,3.3
2018-06-05T04:25:16.093Z,3.2
2018-06-05T04:28:16.330Z,3.2
2018-06-05T04:31:16.187Z,3.6
2018-06-05T04:34:16.187Z,3.3
2018-06-05T04:37:16.174Z,3.4
2018-06-05T04:40:16.444Z,3.4
2018-06-05T04:43:16.255Z,3.5
2018-06-05T04:46:16.125Z,3.3
2018-06-05T04:49:16.184Z,3.4
2018-06-05T04:52:16.171Z,3.3
2018-06-05T04:55:16.264Z,3.5
2018-06-05T04:58:16.205Z,3.2
2018-06-05T05:01:16.202Z,3.3
2018-06-05T05:04:16.177Z,3.2
2018-06-05T05:07:16.124Z,3.5
2018-06-05T05:10:16.395Z,3.7
2018-06-05T05:13:16.218Z,3.4
2018-06-05T05:16:16.824Z,3.3
2018-06-05T05:19:16.046Z,3.6
2018-06-05T05:22:16.022Z,3.4
2018-06-05T05:25:16.222Z,3.5
2018-06-05T05:28:16.308Z,3.4
2018-06-05T05:31:16.604Z,3.2
2018-06-05T05:34:16.289Z,3.5
2018-06-05T05:37:16.413Z,3.4
2018-06-05T05:40:16.316Z,3.3
2018-06-05T05:43:16.222Z,3.5
2018-06-05T05:46:16.039Z,3.5
2018-06-05T05:49:16.275Z,3.5
2018-06-05T05:52:16.019Z,3.4
2018-06-05T05:55:16.181Z,3.3
2018-06-05T05:58:16.225Z,3.2
2018-06-05T06:01:16.249Z,3.6
2018-06-05T06:04:16.240Z,3.3
2018-06-05T06:07:16.400Z,3.5
2018-06-05T06:10:16.232Z,3.7
2018-06-05T06:13:16.232Z,3.4
2018-06-05T06:16:16.119Z,3.7
2018-06-05T06:19:16.367Z,3.4
2018-06-05T06:22:16.289Z,3.3
2018-06-05T06:25:16.541Z,3.5
2018-06-05T06:28:16.409Z,3.5
2018-06-05T06:31:16.298Z,3.5
2018-06-05T06:34:16.378Z,3.5
2018-06-05T06:37:16.178Z,3.2
2018-06-05T06:40:16.171Z,3.4
2018-06-05T06:43:16.229Z,3.7
2018-06-05T06:46:16.037Z,3.5
2018-06-05T06:49:16.233Z,3.4
2018-06-05T06:52:16.589Z,3.4
2018-06-05T06:55:16.106Z,3.6
2018-06-05T06:58:16.292Z,3.3
2018-06-05T07:01:16.010Z,3.7
2018-06-05T07:04:16.284Z,3.7
2018-06-05T07:07:16.077Z,3.4
2018-06-05T07:10:16.153Z,3.5
2018-06-05T07:13:16.190Z,3.4
2018-06-05T07:16:16.321Z,3.4
2018-06-05T07:19:16.149Z,3.2
2018-06-05T07:22:16.090Z,3.6
2018-06-05T07:25:16.108Z,3.5
2018-06-05T07:28:16.107Z,3.6
2018-06-05T07:31:16.036Z,3.5
2018-06-05T07:34:16.114Z,3.1
2018-06-05T07:37:16.386Z,3.4
2018-06-05T07:40:16.019Z,3.2
2018-06-05T07:43:16.615Z,3.3
2018-06-05T07:46:16.265Z,3.7
2018-06-05T07:49:16.182Z,3.4
2018-06-05T07:52:16.127Z,3.5
2018-06-05T07:55:16.649Z,3.3
2018-06-05T07:58:16.079Z,3.4
2018-06-05T08:01:16.165Z,3.2
2018-06-05T08:04:16.375Z,3.4
2018-06-05T08:07:16.131Z,3.1
2018-06-05T08:10:16.259Z,3.4
2018-06-05T08:13:16.202Z,3.4
2018-06-05T08:16:16.097Z,3
2018-06-05T08:19:16.190Z,3
2018-06-05T08:22:16.143Z,3.4
2018-06-05T08:25:16.250Z,3.3
2018-06-05T08:28:16.120Z,3.2
2018-06-05T08:31:16.153Z,3.3
2018-06-05T08:34:19.724Z,3.4
2018-06-05T08:37:16.134Z,3.1
2018-06-05T08:40:16.274Z,3.3
2018-06-05T08:43:15.997Z,3.2
2018-06-05T08:46:16.221Z,3.1
2018-06-05T08:49:16.356Z,3.2
2018-06-05T08:52:16.000Z,3.3
2018-06-05T08:55:16.250Z,3.2
2018-06-05T08:58:16.176Z,3.4
2018-06-05T09:01:16.316Z,3.3
2018-06-05T09:04:16.504Z,3.4
2018-06-05T09:07:16.736Z,3.3
2018-06-05T09:10:16.139Z,3.4
2018-06-05T09:13:16.114Z,3.1
2018-06-05T09:16:16.436Z,3.5
2018-06-05T09:19:16.429Z,3.5
2018-06-05T09:22:16.287Z,3.3
2018-06-05T09:25:16.190Z,3.2
2018-06-05T09:28:16.398Z,3.5
2018-06-05T09:31:16.118Z,3.3
2018-06-05T09:34:16.678Z,3.1
2018-06-05T09:37:16.319Z,3.4
2018-06-05T09:40:15.978Z,3.2
2018-06-05T09:43:16.161Z,3.4
2018-06-05T09:46:16.168Z,3.3
2018-06-05T09:49:16.035Z,3.2
2018-06-05T09:52:16.221Z,3.1
2018-06-05T09:55:16.193Z,3.3
2018-06-05T09:58:18.435Z,3.3
2018-06-05T10:01:16.691Z,3.5
2018-06-05T10:04:16.661Z,3.4
2018-06-05T10:07:16.459Z,3.4
2018-06-05T10:10:16.633Z,3.6
2018-06-05T10:13:16.125Z,3.4
2018-06-05T10:16:16.257Z,3.3
2018-06-05T10:19:16.015Z,3.1
2018-06-05T10:22:16.014Z,3.1
2018-06-05T10:25:16.242Z,3.4
2018-06-05T10:28:16.055Z,3.4
2018-06-05T10:31:16.068Z,3.5
2018-06-05T10:34:16.109Z,3.2
2018-06-05T10:37:16.386Z,3.5
2018-06-05T10:40:16.611Z,3.5
2018-06-05T10:43:15.956Z,3.3
2018-06-05T10:46:16.377Z,3.2
2018-06-05T10:49:16.081Z,3.6
2018-06-05T10:52:15.976Z,3.3
2018-06-05T10:55:16.120Z,3.2
2018-06-05T10:58:16.211Z,3.3
2018-06-05T11:01:16.015Z,3.3
2018-06-05T11:04:16.143Z,3.2
2018-06-05T11:07:16.350Z,3.6
2018-06-05T11:10:16.207Z,3.3
2018-06-05T11:13:16.134Z,3.9
2018-06-05T11:16:16.197Z,3.6
2018-06-05T11:19:16.211Z,3.8
2018-06-05T11:22:16.082Z,3.8
2018-06-05T11:25:16.166Z,3.6
2018-06-05T11:28:16.162Z,3.5
2018-06-05T11:31:15.892Z,4.3
2018-06-05T11:34:16.175Z,3.7
2018-06-05T11:37:16.043Z,3.6
2018-06-05T11:40:15.979Z,3.4
2018-06-05T11:43:16.064Z,3.7
2018-06-05T11:46:16.017Z,3.5
2018-06-05T11:49:16.218Z,3.5
2018-06-05T11:52:15.949Z,3.4
2018-06-05T11:55:16.040Z,3.6
2018-06-05T11:58:16.374Z,3.8
2018-06-05T12:01:15.961Z,3.6
2018-06-05T12:04:16.241Z,3.5
2018-06-05T12:07:16.081Z,5.1
2018-06-05T12:10:15.908Z,3.7
2018-06-05T12:13:16.257Z,3.8
2018-06-05T12:16:16.003Z,3.4
2018-06-05T12:19:16.004Z,3.4
2018-06-05T12:22:16.234Z,3.8
2018-06-05T12:25:16.051Z,4
2018-06-05T12:28:16.015Z,3.4
2018-06-05T12:31:16.210Z,3.5
2018-06-05T12:34:16.074Z,3.5
2018-06-05T12:37:16.078Z,3.5
2018-06-05T12:40:16.067Z,3.4
2018-06-05T12:43:16.223Z,3.5
2018-06-05T12:46:16.159Z,3.2
2018-06-05T12:49:16.121Z,3.4
2018-06-05T12:52:16.135Z,3.3
2018-06-05T12:55:16.231Z,3.5
2018-06-05T12:58:16.087Z,3.3
2018-06-05T13:01:16.046Z,3.5
2018-06-05T13:04:16.184Z,3.6
2018-06-05T13:07:16.004Z,3.5
2018-06-05T13:10:15.917Z,3.5
2018-06-05T13:13:16.073Z,3.5
2018-06-05T13:16:16.457Z,3.4
2018-06-05T13:19:16.135Z,3.4
2018-06-05T13:22:16.197Z,3.5
2018-06-05T13:25:16.125Z,3.3
2018-06-05T13:28:16.294Z,3.4
2018-06-05T13:31:16.017Z,3.5
2018-06-05T13:34:15.926Z,3.3
2018-06-05T13:37:16.200Z,3.4
2018-06-05T13:40:16.047Z,3.2
2018-06-05T13:43:15.881Z,3.5
2018-06-05T13:46:16.209Z,3.5
2018-06-05T13:49:16.110Z,3.2
2018-06-05T13:52:16.151Z,3.6
2018-06-05T13:55:16.150Z,3.6
2018-06-05T13:58:16.134Z,3.4
2018-06-05T14:01:16.008Z,3.5
2018-06-05T14:04:15.979Z,3.4
2018-06-05T14:07:16.070Z,3.6
2018-06-05T14:10:15.998Z,3.6
2018-06-05T14:13:16.086Z,3.6
2018-06-05T14:16:15.963Z,3.5
2018-06-05T14:19:16.086Z,3.8
2018-06-05T14:22:16.069Z,3.6
2018-06-05T14:25:16.026Z,3.3
2018-06-05T14:28:16.080Z,3.4
2018-06-05T14:31:16.061Z,3.4
2018-06-05T14:34:15.988Z,3.3
2018-06-05T14:37:16.153Z,3.6
2018-06-05T14:40:16.314Z,3.7
2018-06-05T14:43:16.169Z,3.6
2018-06-05T14:46:16.241Z,3.4
2018-06-05T14:49:15.899Z,3.5
2018-06-05T14:52:16.025Z,3.5
2018-06-05T14:55:16.137Z,3.8
2018-06-05T14:58:16.039Z,3.6
2018-06-05T15:01:15.981Z,3.7
2018-06-05T15:04:16.034Z,3.5
2018-06-05T15:07:26.264Z,3.5
2018-06-05T15:10:16.077Z,3.7
2018-06-05T15:13:16.104Z,3.6
2018-06-05T15:16:15.906Z,3.9
2018-06-05T15:19:15.922Z,4
2018-06-05T15:22:16.108Z,3.6
2018-06-05T15:25:16.029Z,3.8
2018-06-05T15:28:16.048Z,3.8
2018-06-05T15:31:16.063Z,3.6
2018-06-05T15:34:15.944Z,3.9
2018-06-05T15:37:16.038Z,3.7
2018-06-05T15:40:15.999Z,3.7
2018-06-05T15:43:16.043Z,3.7
2018-06-05T15:46:15.898Z,3.5
2018-06-05T15:49:15.964Z,3.7
2018-06-05T15:52:16.229Z,3.6
2018-06-05T15:55:16.095Z,3.8
2018-06-05T15:58:16.020Z,3.7
2018-06-05T16:01:16.138Z,4
2018-06-05T16:04:16.098Z,3.5
2018-06-05T16:07:15.946Z,3.9
2018-06-05T16:10:16.039Z,3.6
2018-06-05T16:13:16.043Z,3.6
2018-06-05T16:16:15.970Z,3.8
2018-06-05T16:19:15.995Z,3.9
2018-06-05T16:22:15.978Z,4.2
2018-06-05T16:25:15.949Z,3.7
2018-06-05T16:28:16.104Z,3.8
2018-06-05T16:31:15.972Z,3.7
2018-06-05T16:34:15.926Z,3.9
2018-06-05T16:37:16.152Z,3.7
2018-06-05T16:40:16.180Z,3.9
2018-06-05T16:43:16.066Z,3.8
2018-06-05T16:46:15.897Z,3.8
2018-06-05T16:49:16.190Z,3.8
2018-06-05T16:52:16.176Z,4.4
2018-06-05T16:55:16.082Z,3.9
2018-06-05T16:58:16.025Z,4.8
2018-06-05T17:01:16.231Z,4.1
2018-06-05T17:04:16.674Z,6.5
2018-06-05T17:07:15.948Z,4.4
2018-06-05T17:10:16.100Z,4.4
2018-06-05T17:13:15.919Z,5.7
2018-06-05T17:16:16.079Z,4.4
2018-06-05T17:19:15.869Z,4.2
2018-06-05T17:22:16.062Z,4.3
2018-06-05T17:25:16.191Z,4.4
2018-06-05T17:28:16.134Z,5
2018-06-05T17:31:16.103Z,4.4
2018-06-05T17:34:15.936Z,4.7
2018-06-05T17:37:16.001Z,4.4
2018-06-05T17:40:16.469Z,4.3
2018-06-05T17:43:15.976Z,4.6
2018-06-05T17:46:15.875Z,4.7
2018-06-05T17:49:15.897Z,5.3
2018-06-05T17:52:16.039Z,4.4
2018-06-05T17:55:15.803Z,4.9
2018-06-05T17:58:15.925Z,4.7
2018-06-05T18:01:15.992Z,4.7
2018-06-05T18:04:15.888Z,4.6
2018-06-05T18:07:16.123Z,5.7
2018-06-05T18:10:15.813Z,4.9
2018-06-05T18:13:15.875Z,4.5
2018-06-05T18:16:16.104Z,4.6
2018-06-05T18:19:16.048Z,4.6
2018-06-05T18:22:15.977Z,5
2018-06-05T18:25:15.931Z,4.9
2018-06-05T18:28:16.004Z,7
2018-06-05T18:31:15.920Z,5.5
2018-06-05T18:34:16.189Z,5.5
2018-06-05T18:37:17.759Z,6.9
2018-06-05T18:40:15.896Z,8.2
2018-06-05T18:43:16.011Z,13.9
2018-06-05T18:46:16.341Z,8.8
2018-06-05T18:49:15.982Z,7.5
2018-06-05T18:52:16.008Z,8.1
2018-06-05T18:55:16.092Z,5.7
2018-06-05T18:58:15.996Z,10.8
2018-06-05T19:01:16.292Z,7.6
2018-06-05T19:04:16.025Z,7.7
2018-06-05T19:07:16.147Z,7.2
2018-06-05T19:10:16.189Z,8.2
2018-06-05T19:13:16.055Z,6.1
2018-06-05T19:16:15.814Z,6.4
2018-06-05T19:19:15.848Z,6.4
2018-06-05T19:22:16.000Z,5.4
2018-06-05T19:25:15.892Z,6.1
2018-06-05T19:28:16.053Z,6.8
2018-06-05T19:31:16.126Z,5.8
2018-06-05T19:34:15.859Z,5
2018-06-05T19:37:15.904Z,6
2018-06-05T19:40:16.189Z,6.3
2018-06-05T19:43:16.007Z,5.4
2018-06-05T19:46:15.921Z,5.8
2018-06-05T19:49:16.126Z,5.1
2018-06-05T19:52:15.959Z,6.2
2018-06-05T19:55:16.031Z,5.3
2018-06-05T19:58:15.931Z,6.4
2018-06-05T20:01:15.911Z,6.1
2018-06-05T20:04:16.071Z,6.6
2018-06-05T20:07:15.934Z,7
2018-06-05T20:10:16.043Z,5.4
2018-06-05T20:13:15.763Z,7.8
2018-06-05T20:16:15.959Z,7.1
2018-06-05T20:19:16.204Z,5.7
2018-06-05T20:22:15.889Z,7.6
2018-06-05T20:25:16.344Z,5.2
2018-06-05T20:28:15.976Z,6.7
2018-06-05T20:31:15.928Z,5.9
2018-06-05T20:34:15.818Z,5.5
2018-06-05T20:37:16.109Z,6.3
2018-06-05T20:40:15.898Z,7.1
2018-06-05T20:43:15.908Z,5.4
2018-06-05T20:46:15.920Z,7
2018-06-05T20:49:16.029Z,6.2
2018-06-05T20:52:15.961Z,5.3
2018-06-05T20:55:16.112Z,6
2018-06-05T20:58:15.992Z,4.9
2018-06-05T21:01:16.129Z,5
2018-06-05T21:04:16.031Z,4.8
2018-06-05T21:07:15.890Z,5.5
2018-06-05T21:10:16.021Z,5.4
2018-06-05T21:13:15.965Z,5
2018-06-05T21:16:15.831Z,5.2
2018-06-05T21:19:15.917Z,4.9
2018-06-05T21:22:15.821Z,4.6
2018-06-05T21:25:15.889Z,5
2018-06-05T21:28:15.776Z,6.6
2018-06-05T21:31:15.828Z,4.9
2018-06-05T21:34:16.057Z,4.4
2018-06-05T21:37:15.853Z,4.9
2018-06-05T21:40:15.991Z,4.5
2018-06-05T21:43:15.846Z,4.7
2018-06-05T21:46:25.889Z,4.5
2018-06-05T21:49:15.846Z,4.7
2018-06-05T21:52:15.939Z,4.6
2018-06-05T21:55:15.992Z,5
2018-06-05T21:58:15.893Z,4.6
2018-06-05T22:01:15.804Z,4.6
2018-06-05T22:04:15.873Z,4.8
2018-06-05T22:07:16.003Z,4.2
2018-06-05T22:10:15.961Z,4.1
2018-06-05T22:13:15.811Z,4.4
2018-06-05T22:16:15.832Z,4.6
2018-06-05T22:19:15.862Z,4.2
2018-06-05T22:22:15.793Z,4.3
2018-06-05T22:25:15.780Z,4.2
2018-06-05T22:28:15.821Z,4.3
2018-06-05T22:31:16.051Z,4.1
2018-06-05T22:34:15.850Z,4.4
2018-06-05T22:37:16.205Z,3.9
2018-06-05T22:40:16.097Z,4.4
2018-06-05T22:43:16.374Z,4.4
2018-06-05T22:46:16.036Z,4.4
2018-06-05T22:49:15.946Z,4.2
2018-06-05T22:52:16.025Z,4.3
2018-06-05T22:55:15.836Z,3.9
2018-06-05T22:58:15.896Z,4.2
2018-06-05T23:01:15.745Z,4.2
2018-06-05T23:04:15.977Z,4
2018-06-05T23:07:15.998Z,4.3
2018-06-05T23:10:16.114Z,3.8
2018-06-05T23:13:15.899Z,4.1
2018-06-05T23:16:15.963Z,4.3
2018-06-05T23:19:15.835Z,4
2018-06-05T23:22:15.890Z,4.3
2018-06-05T23:25:15.863Z,3.9
2018-06-05T23:28:16.016Z,4.3
2018-06-05T23:31:15.960Z,4.1
2018-06-05T23:34:15.913Z,4.1
2018-06-05T23:37:15.799Z,5.5
2018-06-05T23:40:15.996Z,4
2018-06-05T23:43:16.011Z,4.2
2018-06-05T23:46:15.884Z,4.2
2018-06-05T23:49:15.839Z,4
2018-06-05T23:52:15.726Z,3.9
2018-06-05T23:55:16.015Z,4
2018-06-05T23:58:16.019Z,3.9
